sensor_id;sensor_type;location;lat;lon;timestamp;temperature;humidity
67974;DHT22;54756;51.140;6.952;2024-01-06T00:00:28;7.50;99.90
67974;DHT22;54756;51.140;6.952;2024-01-06T00:02:29;7.50;99.90
67974;DHT22;54756;51.140;6.952;2024-01-06T00:04:29;7.50;99.90
67974;DHT22;54756;51.140;6.952;2024-01-06T00:06:30;7.50;99.90
67974;DHT22;54756;51.140;6.952;2024-01-06T00:08:31;7.50;99.90
67974;DHT22;54756;51.140;6.952;2024-01-06T00:10:31;7.50;99.90
67974;DHT22;54756;51.140;6.952;2024-01-06T00:12:32;7.50;99.90
67974;DHT22;54756;51.140;6.952;2024-01-06T00:14:32;7.50;99.90
67974;DHT22;54756;51.140;6.952;2024-01-06T00:16:33;7.50;99.90
67974;DHT22;54756;51.140;6.952;2024-01-06T00:18:33;7.50;99.90
67974;DHT22;54756;51.140;6.952;2024-01-06T00:20:34;7.60;99.90
67974;DHT22;54756;51.140;6.952;2024-01-06T00:22:34;7.60;99.90
67974;DHT22;54756;51.140;6.952;2024-01-06T00:24:35;7.60;99.90
67974;DHT22;54756;51.140;6.952;2024-01-06T00:26:36;7.60;99.90
67974;DHT22;54756;51.140;6.952;2024-01-06T00:28:38;7.60;99.90
67974;DHT22;54756;51.140;6.952;2024-01-06T00:30:39;7.60;99.90
67974;DHT22;54756;51.140;6.952;2024-01-06T00:32:39;7.60;99.90
67974;DHT22;54756;51.140;6.952;2024-01-06T00:34:40;7.60;99.90
67974;DHT22;54756;51.140;6.952;2024-01-06T00:36:40;7.60;99.90
67974;DHT22;54756;51.140;6.952;2024-01-06T00:38:41;7.60;99.90
67974;DHT22;54756;51.140;6.952;2024-01-06T00:40:42;7.60;99.90
67974;DHT22;54756;51.140;6.952;2024-01-06T00:42:42;7.60;99.90
67974;DHT22;54756;51.140;6.952;2024-01-06T00:44:43;7.60;99.90
67974;DHT22;54756;51.140;6.952;2024-01-06T00:46:45;7.60;99.90
67974;DHT22;54756;51.140;6.952;2024-01-06T00:48:46;7.60;99.90
67974;DHT22;54756;51.140;6.952;2024-01-06T00:50:46;7.60;99.90
67974;DHT22;54756;51.140;6.952;2024-01-06T00:52:47;7.60;99.90
67974;DHT22;54756;51.140;6.952;2024-01-06T00:54:47;7.70;99.90
67974;DHT22;54756;51.140;6.952;2024-01-06T00:56:48;7.70;99.90
67974;DHT22;54756;51.140;6.952;2024-01-06T00:58:48;7.70;99.90
67974;DHT22;54756;51.140;6.952;2024-01-06T01:00:49;7.70;99.90
67974;DHT22;54756;51.140;6.952;2024-01-06T01:02:50;7.70;99.90
67974;DHT22;54756;51.140;6.952;2024-01-06T01:04:50;7.70;99.90
67974;DHT22;54756;51.140;6.952;2024-01-06T01:06:52;7.70;99.90
67974;DHT22;54756;51.140;6.952;2024-01-06T01:08:53;7.60;99.90
67974;DHT22;54756;51.140;6.952;2024-01-06T01:10:53;7.60;99.90
67974;DHT22;54756;51.140;6.952;2024-01-06T01:12:54;7.60;99.90
67974;DHT22;54756;51.140;6.952;2024-01-06T01:14:54;7.60;99.90
67974;DHT22;54756;51.140;6.952;2024-01-06T01:16:55;7.60;99.90
67974;DHT22;54756;51.140;6.952;2024-01-06T01:18:56;7.60;99.90
67974;DHT22;54756;51.140;6.952;2024-01-06T01:20:56;7.60;99.90
67974;DHT22;54756;51.140;6.952;2024-01-06T01:22:57;7.60;99.90
67974;DHT22;54756;51.140;6.952;2024-01-06T01:24:57;7.60;99.90
67974;DHT22;54756;51.140;6.952;2024-01-06T01:26:58;7.60;99.90
67974;DHT22;54756;51.140;6.952;2024-01-06T01:28:58;7.60;99.90
67974;DHT22;54756;51.140;6.952;2024-01-06T01:30:59;7.60;99.90
67974;DHT22;54756;51.140;6.952;2024-01-06T01:32:59;7.60;99.90
67974;DHT22;54756;51.140;6.952;2024-01-06T01:35:00;7.60;99.90
67974;DHT22;54756;51.140;6.952;2024-01-06T01:37:01;7.60;99.90
67974;DHT22;54756;51.140;6.952;2024-01-06T01:39:01;7.60;99.90
67974;DHT22;54756;51.140;6.952;2024-01-06T01:41:02;7.50;99.90
67974;DHT22;54756;51.140;6.952;2024-01-06T01:43:02;7.50;99.90
67974;DHT22;54756;51.140;6.952;2024-01-06T01:45:04;7.50;99.90
67974;DHT22;54756;51.140;6.952;2024-01-06T01:47:05;7.50;99.90
67974;DHT22;54756;51.140;6.952;2024-01-06T01:49:06;7.60;99.90
67974;DHT22;54756;51.140;6.952;2024-01-06T01:51:08;7.50;99.90
67974;DHT22;54756;51.140;6.952;2024-01-06T01:53:10;7.50;99.90
67974;DHT22;54756;51.140;6.952;2024-01-06T01:55:11;7.60;99.90
67974;DHT22;54756;51.140;6.952;2024-01-06T01:57:13;7.60;99.90
67974;DHT22;54756;51.140;6.952;2024-01-06T01:59:18;7.60;99.90
67974;DHT22;54756;51.140;6.952;2024-01-06T02:01:19;7.60;99.90
67974;DHT22;54756;51.140;6.952;2024-01-06T02:03:20;7.50;99.90
67974;DHT22;54756;51.140;6.952;2024-01-06T02:05:22;7.50;99.90
67974;DHT22;54756;51.140;6.952;2024-01-06T02:07:23;7.50;99.90
67974;DHT22;54756;51.140;6.952;2024-01-06T02:09:23;7.50;99.90
67974;DHT22;54756;51.140;6.952;2024-01-06T02:11:27;7.50;99.90
67974;DHT22;54756;51.140;6.952;2024-01-06T02:13:33;7.50;99.90
67974;DHT22;54756;51.140;6.952;2024-01-06T02:15:35;7.50;99.90
67974;DHT22;54756;51.140;6.952;2024-01-06T02:17:35;7.50;99.90
67974;DHT22;54756;51.140;6.952;2024-01-06T02:19:36;7.50;99.90
67974;DHT22;54756;51.140;6.952;2024-01-06T02:21:41;7.60;99.90
67974;DHT22;54756;51.140;6.952;2024-01-06T02:23:42;7.50;99.90
67974;DHT22;54756;51.140;6.952;2024-01-06T02:25:42;7.50;99.90
67974;DHT22;54756;51.140;6.952;2024-01-06T02:27:43;7.50;99.90
67974;DHT22;54756;51.140;6.952;2024-01-06T02:29:43;7.50;99.90
67974;DHT22;54756;51.140;6.952;2024-01-06T02:31:44;7.50;99.90
67974;DHT22;54756;51.140;6.952;2024-01-06T02:33:44;7.50;99.90
67974;DHT22;54756;51.140;6.952;2024-01-06T02:35:48;7.50;99.90
67974;DHT22;54756;51.140;6.952;2024-01-06T02:37:48;7.50;99.90
67974;DHT22;54756;51.140;6.952;2024-01-06T02:39:49;7.50;99.90
67974;DHT22;54756;51.140;6.952;2024-01-06T02:41:49;7.60;99.90
67974;DHT22;54756;51.140;6.952;2024-01-06T02:43:50;7.60;99.90
67974;DHT22;54756;51.140;6.952;2024-01-06T02:45:50;7.60;99.90
67974;DHT22;54756;51.140;6.952;2024-01-06T02:47:51;7.60;99.90
67974;DHT22;54756;51.140;6.952;2024-01-06T02:49:52;7.60;99.90
67974;DHT22;54756;51.140;6.952;2024-01-06T02:51:52;7.60;99.90
67974;DHT22;54756;51.140;6.952;2024-01-06T02:53:53;7.60;99.90
67974;DHT22;54756;51.140;6.952;2024-01-06T02:55:54;7.60;99.90
67974;DHT22;54756;51.140;6.952;2024-01-06T02:57:54;7.60;99.90
67974;DHT22;54756;51.140;6.952;2024-01-06T02:59:55;7.60;99.90
67974;DHT22;54756;51.140;6.952;2024-01-06T03:01:59;7.60;99.90
67974;DHT22;54756;51.140;6.952;2024-01-06T03:03:59;7.60;99.90
67974;DHT22;54756;51.140;6.952;2024-01-06T03:06:00;7.60;99.90
67974;DHT22;54756;51.140;6.952;2024-01-06T03:08:00;7.60;99.90
67974;DHT22;54756;51.140;6.952;2024-01-06T03:10:01;7.60;99.90
67974;DHT22;54756;51.140;6.952;2024-01-06T03:12:03;7.60;99.90
67974;DHT22;54756;51.140;6.952;2024-01-06T03:14:03;7.60;99.90
67974;DHT22;54756;51.140;6.952;2024-01-06T03:16:04;7.60;99.90
67974;DHT22;54756;51.140;6.952;2024-01-06T03:18:05;7.60;99.90
67974;DHT22;54756;51.140;6.952;2024-01-06T03:20:07;7.60;99.90
67974;DHT22;54756;51.140;6.952;2024-01-06T03:22:08;7.60;99.90
67974;DHT22;54756;51.140;6.952;2024-01-06T03:24:08;7.60;99.90
67974;DHT22;54756;51.140;6.952;2024-01-06T03:26:11;7.60;99.90
67974;DHT22;54756;51.140;6.952;2024-01-06T03:28:12;7.60;99.90
67974;DHT22;54756;51.140;6.952;2024-01-06T03:30:13;7.60;99.90
67974;DHT22;54756;51.140;6.952;2024-01-06T03:32:13;7.60;99.90
67974;DHT22;54756;51.140;6.952;2024-01-06T03:34:14;7.60;99.90
67974;DHT22;54756;51.140;6.952;2024-01-06T03:36:15;7.60;99.90
67974;DHT22;54756;51.140;6.952;2024-01-06T03:38:17;7.60;99.90
67974;DHT22;54756;51.140;6.952;2024-01-06T03:40:17;7.60;99.90
67974;DHT22;54756;51.140;6.952;2024-01-06T03:42:18;7.60;99.90
67974;DHT22;54756;51.140;6.952;2024-01-06T03:44:18;7.60;99.90
67974;DHT22;54756;51.140;6.952;2024-01-06T03:46:19;7.60;99.90
67974;DHT22;54756;51.140;6.952;2024-01-06T03:48:19;7.50;99.90
67974;DHT22;54756;51.140;6.952;2024-01-06T03:50:20;7.60;99.90
67974;DHT22;54756;51.140;6.952;2024-01-06T03:52:20;7.60;99.90
67974;DHT22;54756;51.140;6.952;2024-01-06T03:54:21;7.50;99.90
67974;DHT22;54756;51.140;6.952;2024-01-06T03:56:21;7.60;99.90
67974;DHT22;54756;51.140;6.952;2024-01-06T03:58:22;7.60;99.90
67974;DHT22;54756;51.140;6.952;2024-01-06T04:00:25;7.60;99.90
67974;DHT22;54756;51.140;6.952;2024-01-06T04:02:26;7.60;99.90
67974;DHT22;54756;51.140;6.952;2024-01-06T04:04:26;7.60;99.90
67974;DHT22;54756;51.140;6.952;2024-01-06T04:06:27;7.60;99.90
67974;DHT22;54756;51.140;6.952;2024-01-06T04:08:27;7.60;99.90
67974;DHT22;54756;51.140;6.952;2024-01-06T04:10:28;7.60;99.90
67974;DHT22;54756;51.140;6.952;2024-01-06T04:12:28;7.60;99.90
67974;DHT22;54756;51.140;6.952;2024-01-06T04:14:29;7.60;99.90
67974;DHT22;54756;51.140;6.952;2024-01-06T04:16:29;7.60;99.90
67974;DHT22;54756;51.140;6.952;2024-01-06T04:18:30;7.60;99.90
67974;DHT22;54756;51.140;6.952;2024-01-06T04:20:31;7.60;99.90
67974;DHT22;54756;51.140;6.952;2024-01-06T04:22:32;7.60;99.90
67974;DHT22;54756;51.140;6.952;2024-01-06T04:24:32;7.70;99.90
67974;DHT22;54756;51.140;6.952;2024-01-06T04:26:37;7.70;99.90
67974;DHT22;54756;51.140;6.952;2024-01-06T04:28:38;7.70;99.90
67974;DHT22;54756;51.140;6.952;2024-01-06T04:30:38;7.70;99.90
67974;DHT22;54756;51.140;6.952;2024-01-06T04:32:39;7.70;99.90
67974;DHT22;54756;51.140;6.952;2024-01-06T04:34:39;7.70;99.90
67974;DHT22;54756;51.140;6.952;2024-01-06T04:36:40;7.70;99.90
67974;DHT22;54756;51.140;6.952;2024-01-06T04:38:40;7.70;99.90
67974;DHT22;54756;51.140;6.952;2024-01-06T04:40:41;7.70;99.90
67974;DHT22;54756;51.140;6.952;2024-01-06T04:42:41;7.70;99.90
67974;DHT22;54756;51.140;6.952;2024-01-06T04:44:42;7.70;99.90
67974;DHT22;54756;51.140;6.952;2024-01-06T04:46:42;7.70;99.90
67974;DHT22;54756;51.140;6.952;2024-01-06T04:48:43;7.70;99.90
67974;DHT22;54756;51.140;6.952;2024-01-06T04:50:44;7.60;99.90
67974;DHT22;54756;51.140;6.952;2024-01-06T04:52:44;7.70;99.90
67974;DHT22;54756;51.140;6.952;2024-01-06T04:54:45;7.60;99.90
67974;DHT22;54756;51.140;6.952;2024-01-06T04:56:45;7.60;99.90
67974;DHT22;54756;51.140;6.952;2024-01-06T04:58:46;7.60;99.90
67974;DHT22;54756;51.140;6.952;2024-01-06T05:00:46;7.50;99.90
67974;DHT22;54756;51.140;6.952;2024-01-06T05:02:47;7.50;99.90
67974;DHT22;54756;51.140;6.952;2024-01-06T05:04:47;7.50;99.90
67974;DHT22;54756;51.140;6.952;2024-01-06T05:06:48;7.50;99.90
67974;DHT22;54756;51.140;6.952;2024-01-06T05:08:50;7.50;99.90
67974;DHT22;54756;51.140;6.952;2024-01-06T05:10:52;7.50;99.90
67974;DHT22;54756;51.140;6.952;2024-01-06T05:12:53;7.40;99.90
67974;DHT22;54756;51.140;6.952;2024-01-06T05:14:54;7.50;99.90
67974;DHT22;54756;51.140;6.952;2024-01-06T05:16:55;7.40;99.90
67974;DHT22;54756;51.140;6.952;2024-01-06T05:18:55;7.40;99.90
67974;DHT22;54756;51.140;6.952;2024-01-06T05:20:56;7.40;99.90
67974;DHT22;54756;51.140;6.952;2024-01-06T05:22:57;7.40;99.90
67974;DHT22;54756;51.140;6.952;2024-01-06T05:24:57;7.40;99.90
67974;DHT22;54756;51.140;6.952;2024-01-06T05:26:58;7.40;99.90
67974;DHT22;54756;51.140;6.952;2024-01-06T05:28:58;7.40;99.90
67974;DHT22;54756;51.140;6.952;2024-01-06T05:30:59;7.40;99.90
67974;DHT22;54756;51.140;6.952;2024-01-06T05:33:00;7.40;99.90
67974;DHT22;54756;51.140;6.952;2024-01-06T05:35:01;7.40;99.90
67974;DHT22;54756;51.140;6.952;2024-01-06T05:37:02;7.40;99.90
67974;DHT22;54756;51.140;6.952;2024-01-06T05:39:02;7.40;99.90
67974;DHT22;54756;51.140;6.952;2024-01-06T05:41:03;7.40;99.90
67974;DHT22;54756;51.140;6.952;2024-01-06T05:43:03;7.30;99.90
67974;DHT22;54756;51.140;6.952;2024-01-06T05:45:04;7.30;99.90
67974;DHT22;54756;51.140;6.952;2024-01-06T05:47:05;7.40;99.90
67974;DHT22;54756;51.140;6.952;2024-01-06T05:49:06;7.30;99.90
67974;DHT22;54756;51.140;6.952;2024-01-06T05:51:08;7.30;99.90
67974;DHT22;54756;51.140;6.952;2024-01-06T05:53:10;7.30;99.90
67974;DHT22;54756;51.140;6.952;2024-01-06T05:55:11;7.30;99.90
67974;DHT22;54756;51.140;6.952;2024-01-06T05:57:11;7.30;99.90
67974;DHT22;54756;51.140;6.952;2024-01-06T05:59:12;7.30;99.90
67974;DHT22;54756;51.140;6.952;2024-01-06T06:01:12;7.30;99.90
67974;DHT22;54756;51.140;6.952;2024-01-06T06:03:13;7.30;99.90
67974;DHT22;54756;51.140;6.952;2024-01-06T06:05:13;7.30;99.90
67974;DHT22;54756;51.140;6.952;2024-01-06T06:07:14;7.30;99.90
67974;DHT22;54756;51.140;6.952;2024-01-06T06:09:14;7.30;99.90
67974;DHT22;54756;51.140;6.952;2024-01-06T06:11:15;7.30;99.90
67974;DHT22;54756;51.140;6.952;2024-01-06T06:13:17;7.20;99.90
67974;DHT22;54756;51.140;6.952;2024-01-06T06:15:17;7.30;99.90
67974;DHT22;54756;51.140;6.952;2024-01-06T06:17:18;7.20;99.90
67974;DHT22;54756;51.140;6.952;2024-01-06T06:19:18;7.20;99.90
67974;DHT22;54756;51.140;6.952;2024-01-06T06:21:19;7.20;99.90
67974;DHT22;54756;51.140;6.952;2024-01-06T06:23:19;7.20;99.90
67974;DHT22;54756;51.140;6.952;2024-01-06T06:25:20;7.20;99.90
67974;DHT22;54756;51.140;6.952;2024-01-06T06:27:21;7.20;99.90
67974;DHT22;54756;51.140;6.952;2024-01-06T06:29:21;7.20;99.90
67974;DHT22;54756;51.140;6.952;2024-01-06T06:31:22;7.20;99.90
67974;DHT22;54756;51.140;6.952;2024-01-06T06:33:22;7.20;99.90
67974;DHT22;54756;51.140;6.952;2024-01-06T06:35:24;7.20;99.90
67974;DHT22;54756;51.140;6.952;2024-01-06T06:37:24;7.20;99.90
67974;DHT22;54756;51.140;6.952;2024-01-06T06:39:25;7.10;99.90
67974;DHT22;54756;51.140;6.952;2024-01-06T06:41:27;7.10;99.90
67974;DHT22;54756;51.140;6.952;2024-01-06T06:43:28;7.10;99.90
67974;DHT22;54756;51.140;6.952;2024-01-06T06:45:28;7.10;99.90
67974;DHT22;54756;51.140;6.952;2024-01-06T06:47:29;7.10;99.90
67974;DHT22;54756;51.140;6.952;2024-01-06T06:49:29;7.10;99.90
67974;DHT22;54756;51.140;6.952;2024-01-06T06:51:30;7.10;99.90
67974;DHT22;54756;51.140;6.952;2024-01-06T06:53:30;7.10;99.90
67974;DHT22;54756;51.140;6.952;2024-01-06T06:55:31;7.10;99.90
67974;DHT22;54756;51.140;6.952;2024-01-06T06:57:31;7.10;99.90
67974;DHT22;54756;51.140;6.952;2024-01-06T06:59:32;7.10;99.90
67974;DHT22;54756;51.140;6.952;2024-01-06T07:01:33;7.10;99.90
67974;DHT22;54756;51.140;6.952;2024-01-06T07:03:34;7.10;99.90
67974;DHT22;54756;51.140;6.952;2024-01-06T07:05:35;7.10;99.90
67974;DHT22;54756;51.140;6.952;2024-01-06T07:07:35;7.10;99.90
67974;DHT22;54756;51.140;6.952;2024-01-06T07:09:36;7.10;99.90
67974;DHT22;54756;51.140;6.952;2024-01-06T07:11:36;7.10;99.90
67974;DHT22;54756;51.140;6.952;2024-01-06T07:13:37;7.10;99.90
67974;DHT22;54756;51.140;6.952;2024-01-06T07:15:38;7.10;99.90
67974;DHT22;54756;51.140;6.952;2024-01-06T07:17:38;7.10;99.90
67974;DHT22;54756;51.140;6.952;2024-01-06T07:19:39;7.10;99.90
67974;DHT22;54756;51.140;6.952;2024-01-06T07:21:39;7.10;99.90
67974;DHT22;54756;51.140;6.952;2024-01-06T07:23:40;7.10;99.90
67974;DHT22;54756;51.140;6.952;2024-01-06T07:25:40;7.10;99.90
67974;DHT22;54756;51.140;6.952;2024-01-06T07:27:41;7.10;99.90
67974;DHT22;54756;51.140;6.952;2024-01-06T07:29:41;7.10;99.90
67974;DHT22;54756;51.140;6.952;2024-01-06T07:31:42;7.10;99.90
67974;DHT22;54756;51.140;6.952;2024-01-06T07:33:43;7.00;99.90
67974;DHT22;54756;51.140;6.952;2024-01-06T07:35:43;7.00;99.90
67974;DHT22;54756;51.140;6.952;2024-01-06T07:37:44;7.00;99.90
67974;DHT22;54756;51.140;6.952;2024-01-06T07:39:44;7.00;99.90
67974;DHT22;54756;51.140;6.952;2024-01-06T07:41:45;7.00;99.90
67974;DHT22;54756;51.140;6.952;2024-01-06T07:43:46;7.00;99.90
67974;DHT22;54756;51.140;6.952;2024-01-06T07:45:47;7.00;99.90
67974;DHT22;54756;51.140;6.952;2024-01-06T07:47:48;7.00;99.90
67974;DHT22;54756;51.140;6.952;2024-01-06T07:49:49;7.00;99.90
67974;DHT22;54756;51.140;6.952;2024-01-06T07:51:49;7.00;99.90
67974;DHT22;54756;51.140;6.952;2024-01-06T07:53:50;7.00;99.90
67974;DHT22;54756;51.140;6.952;2024-01-06T07:55:51;7.00;99.90
67974;DHT22;54756;51.140;6.952;2024-01-06T07:57:51;6.90;99.90
67974;DHT22;54756;51.140;6.952;2024-01-06T07:59:53;6.90;99.90
67974;DHT22;54756;51.140;6.952;2024-01-06T08:01:53;6.90;99.90
67974;DHT22;54756;51.140;6.952;2024-01-06T08:03:54;6.90;99.90
67974;DHT22;54756;51.140;6.952;2024-01-06T08:05:55;6.90;99.90
67974;DHT22;54756;51.140;6.952;2024-01-06T08:07:56;6.90;99.90
67974;DHT22;54756;51.140;6.952;2024-01-06T08:09:56;6.90;99.90
67974;DHT22;54756;51.140;6.952;2024-01-06T08:11:57;6.90;99.90
67974;DHT22;54756;51.140;6.952;2024-01-06T08:13:57;6.90;99.90
67974;DHT22;54756;51.140;6.952;2024-01-06T08:15:58;6.90;99.90
67974;DHT22;54756;51.140;6.952;2024-01-06T08:17:59;6.80;99.90
67974;DHT22;54756;51.140;6.952;2024-01-06T08:20:00;6.80;99.90
67974;DHT22;54756;51.140;6.952;2024-01-06T08:22:00;6.80;99.90
67974;DHT22;54756;51.140;6.952;2024-01-06T08:24:01;6.80;99.90
67974;DHT22;54756;51.140;6.952;2024-01-06T08:26:02;6.80;99.90
67974;DHT22;54756;51.140;6.952;2024-01-06T08:28:04;6.90;99.90
67974;DHT22;54756;51.140;6.952;2024-01-06T08:30:05;6.90;99.90
67974;DHT22;54756;51.140;6.952;2024-01-06T08:32:06;6.90;99.90
67974;DHT22;54756;51.140;6.952;2024-01-06T08:34:07;6.90;99.90
67974;DHT22;54756;51.140;6.952;2024-01-06T08:36:08;6.90;99.90
67974;DHT22;54756;51.140;6.952;2024-01-06T08:38:09;6.80;99.90
67974;DHT22;54756;51.140;6.952;2024-01-06T08:40:10;6.90;99.90
67974;DHT22;54756;51.140;6.952;2024-01-06T08:42:11;6.80;99.90
67974;DHT22;54756;51.140;6.952;2024-01-06T08:44:11;6.80;99.90
67974;DHT22;54756;51.140;6.952;2024-01-06T08:46:12;6.80;99.90
67974;DHT22;54756;51.140;6.952;2024-01-06T08:48:13;6.70;99.90
67974;DHT22;54756;51.140;6.952;2024-01-06T08:50:14;6.70;99.90
67974;DHT22;54756;51.140;6.952;2024-01-06T08:52:14;6.70;99.90
67974;DHT22;54756;51.140;6.952;2024-01-06T08:54:15;6.70;99.90
67974;DHT22;54756;51.140;6.952;2024-01-06T08:56:16;6.70;99.90
67974;DHT22;54756;51.140;6.952;2024-01-06T08:58:18;6.70;99.90
67974;DHT22;54756;51.140;6.952;2024-01-06T09:00:18;6.70;99.90
67974;DHT22;54756;51.140;6.952;2024-01-06T09:02:19;6.70;99.90
67974;DHT22;54756;51.140;6.952;2024-01-06T09:04:19;6.70;99.90
67974;DHT22;54756;51.140;6.952;2024-01-06T09:06:20;6.70;99.90
67974;DHT22;54756;51.140;6.952;2024-01-06T09:08:20;6.70;99.90
67974;DHT22;54756;51.140;6.952;2024-01-06T09:10:21;6.70;99.90
67974;DHT22;54756;51.140;6.952;2024-01-06T09:12:21;6.70;99.90
67974;DHT22;54756;51.140;6.952;2024-01-06T09:14:22;6.70;99.90
67974;DHT22;54756;51.140;6.952;2024-01-06T09:16:22;6.70;99.90
67974;DHT22;54756;51.140;6.952;2024-01-06T09:18:23;6.70;99.90
67974;DHT22;54756;51.140;6.952;2024-01-06T09:20:23;6.70;99.90
67974;DHT22;54756;51.140;6.952;2024-01-06T09:22:24;6.70;99.90
67974;DHT22;54756;51.140;6.952;2024-01-06T09:24:24;6.70;99.90
67974;DHT22;54756;51.140;6.952;2024-01-06T09:26:25;6.70;99.90
67974;DHT22;54756;51.140;6.952;2024-01-06T09:28:25;6.70;99.90
67974;DHT22;54756;51.140;6.952;2024-01-06T09:30:26;6.70;99.90
67974;DHT22;54756;51.140;6.952;2024-01-06T09:32:27;6.80;99.90
67974;DHT22;54756;51.140;6.952;2024-01-06T09:34:28;6.70;99.90
67974;DHT22;54756;51.140;6.952;2024-01-06T09:36:31;6.70;99.90
67974;DHT22;54756;51.140;6.952;2024-01-06T09:38:31;6.70;99.90
67974;DHT22;54756;51.140;6.952;2024-01-06T09:40:34;6.70;99.90
67974;DHT22;54756;51.140;6.952;2024-01-06T09:42:35;6.70;99.90
67974;DHT22;54756;51.140;6.952;2024-01-06T09:44:36;6.70;99.90
67974;DHT22;54756;51.140;6.952;2024-01-06T09:46:37;6.70;99.90
67974;DHT22;54756;51.140;6.952;2024-01-06T09:48:40;6.70;99.90
67974;DHT22;54756;51.140;6.952;2024-01-06T09:50:44;6.70;99.90
67974;DHT22;54756;51.140;6.952;2024-01-06T09:52:48;6.70;99.90
67974;DHT22;54756;51.140;6.952;2024-01-06T09:54:57;6.70;99.90
67974;DHT22;54756;51.140;6.952;2024-01-06T09:57:02;6.70;99.90
67974;DHT22;54756;51.140;6.952;2024-01-06T09:59:03;6.70;99.90
67974;DHT22;54756;51.140;6.952;2024-01-06T10:01:05;6.70;99.90
67974;DHT22;54756;51.140;6.952;2024-01-06T10:03:06;6.70;99.90
67974;DHT22;54756;51.140;6.952;2024-01-06T10:05:08;6.70;99.90
67974;DHT22;54756;51.140;6.952;2024-01-06T10:07:10;6.70;99.90
67974;DHT22;54756;51.140;6.952;2024-01-06T10:09:13;6.70;99.90
67974;DHT22;54756;51.140;6.952;2024-01-06T10:11:14;6.60;99.90
67974;DHT22;54756;51.140;6.952;2024-01-06T10:13:17;6.70;99.90
67974;DHT22;54756;51.140;6.952;2024-01-06T10:15:19;6.60;99.90
67974;DHT22;54756;51.140;6.952;2024-01-06T10:17:20;6.60;99.90
67974;DHT22;54756;51.140;6.952;2024-01-06T10:19:23;6.60;99.90
67974;DHT22;54756;51.140;6.952;2024-01-06T10:21:25;6.70;99.90
67974;DHT22;54756;51.140;6.952;2024-01-06T10:23:29;6.60;99.90
67974;DHT22;54756;51.140;6.952;2024-01-06T10:25:29;6.60;99.90
67974;DHT22;54756;51.140;6.952;2024-01-06T10:27:30;6.60;99.90
67974;DHT22;54756;51.140;6.952;2024-01-06T10:29:30;6.60;99.90
67974;DHT22;54756;51.140;6.952;2024-01-06T10:31:31;6.60;99.90
67974;DHT22;54756;51.140;6.952;2024-01-06T10:33:33;6.60;99.90
67974;DHT22;54756;51.140;6.952;2024-01-06T10:35:33;6.60;99.90
67974;DHT22;54756;51.140;6.952;2024-01-06T10:37:36;6.60;99.90
67974;DHT22;54756;51.140;6.952;2024-01-06T10:39:37;6.60;99.90
67974;DHT22;54756;51.140;6.952;2024-01-06T10:41:38;6.60;99.90
67974;DHT22;54756;51.140;6.952;2024-01-06T10:43:42;6.60;99.90
67974;DHT22;54756;51.140;6.952;2024-01-06T10:45:44;6.60;99.90
67974;DHT22;54756;51.140;6.952;2024-01-06T10:47:45;6.60;99.90
67974;DHT22;54756;51.140;6.952;2024-01-06T10:49:48;6.60;99.90
67974;DHT22;54756;51.140;6.952;2024-01-06T10:51:49;6.60;99.90
67974;DHT22;54756;51.140;6.952;2024-01-06T10:53:51;6.60;99.90
67974;DHT22;54756;51.140;6.952;2024-01-06T10:55:53;6.60;99.90
67974;DHT22;54756;51.140;6.952;2024-01-06T10:57:54;6.60;99.90
67974;DHT22;54756;51.140;6.952;2024-01-06T10:59:58;6.50;99.90
67974;DHT22;54756;51.140;6.952;2024-01-06T11:01:59;6.50;99.90
67974;DHT22;54756;51.140;6.952;2024-01-06T11:04:02;6.50;99.90
67974;DHT22;54756;51.140;6.952;2024-01-06T11:06:07;6.50;99.90
67974;DHT22;54756;51.140;6.952;2024-01-06T11:08:11;6.50;99.90
67974;DHT22;54756;51.140;6.952;2024-01-06T11:10:16;6.50;99.90
67974;DHT22;54756;51.140;6.952;2024-01-06T11:12:18;6.50;99.90
67974;DHT22;54756;51.140;6.952;2024-01-06T11:14:26;6.50;99.90
67974;DHT22;54756;51.140;6.952;2024-01-06T11:16:34;6.50;99.90
67974;DHT22;54756;51.140;6.952;2024-01-06T11:18:36;6.50;99.90
67974;DHT22;54756;51.140;6.952;2024-01-06T11:23:22;6.50;99.90
67974;DHT22;54756;51.140;6.952;2024-01-06T11:25:23;6.40;99.90
67974;DHT22;54756;51.140;6.952;2024-01-06T11:27:28;6.50;99.90
67974;DHT22;54756;51.140;6.952;2024-01-06T11:29:30;6.40;99.90
67974;DHT22;54756;51.140;6.952;2024-01-06T11:31:31;6.40;99.90
67974;DHT22;54756;51.140;6.952;2024-01-06T11:33:32;6.40;99.90
67974;DHT22;54756;51.140;6.952;2024-01-06T11:35:33;6.40;99.90
67974;DHT22;54756;51.140;6.952;2024-01-06T11:39:41;6.40;99.90
67974;DHT22;54756;51.140;6.952;2024-01-06T11:41:48;6.40;99.90
67974;DHT22;54756;51.140;6.952;2024-01-06T11:43:49;6.40;99.90
67974;DHT22;54756;51.140;6.952;2024-01-06T11:45:51;6.30;99.90
67974;DHT22;54756;51.140;6.952;2024-01-06T11:47:56;6.30;99.90
67974;DHT22;54756;51.140;6.952;2024-01-06T11:50:00;6.40;99.90
67974;DHT22;54756;51.140;6.952;2024-01-06T11:52:04;6.40;99.90
67974;DHT22;54756;51.140;6.952;2024-01-06T11:54:05;6.30;99.90
67974;DHT22;54756;51.140;6.952;2024-01-06T11:56:06;6.30;99.90
67974;DHT22;54756;51.140;6.952;2024-01-06T11:58:06;6.30;99.90
67974;DHT22;54756;51.140;6.952;2024-01-06T12:00:07;6.30;99.90
67974;DHT22;54756;51.140;6.952;2024-01-06T12:02:11;6.30;99.90
67974;DHT22;54756;51.140;6.952;2024-01-06T12:04:17;6.30;99.90
67974;DHT22;54756;51.140;6.952;2024-01-06T12:06:20;6.30;99.90
67974;DHT22;54756;51.140;6.952;2024-01-06T12:08:24;6.30;99.90
67974;DHT22;54756;51.140;6.952;2024-01-06T12:10:25;6.30;99.90
67974;DHT22;54756;51.140;6.952;2024-01-06T12:12:26;6.20;99.90
67974;DHT22;54756;51.140;6.952;2024-01-06T12:14:26;6.30;99.90
67974;DHT22;54756;51.140;6.952;2024-01-06T12:16:27;6.20;99.90
67974;DHT22;54756;51.140;6.952;2024-01-06T12:18:28;6.30;99.90
67974;DHT22;54756;51.140;6.952;2024-01-06T12:20:28;6.20;99.90
67974;DHT22;54756;51.140;6.952;2024-01-06T12:22:29;6.20;99.90
67974;DHT22;54756;51.140;6.952;2024-01-06T12:24:30;6.20;99.90
67974;DHT22;54756;51.140;6.952;2024-01-06T12:26:31;6.20;99.90
67974;DHT22;54756;51.140;6.952;2024-01-06T12:28:35;6.20;99.90
67974;DHT22;54756;51.140;6.952;2024-01-06T12:30:38;6.20;99.90
67974;DHT22;54756;51.140;6.952;2024-01-06T12:32:39;6.20;99.90
67974;DHT22;54756;51.140;6.952;2024-01-06T12:34:39;6.20;99.90
67974;DHT22;54756;51.140;6.952;2024-01-06T12:36:41;6.20;99.90
67974;DHT22;54756;51.140;6.952;2024-01-06T12:38:43;6.20;99.90
67974;DHT22;54756;51.140;6.952;2024-01-06T12:40:46;6.20;99.90
67974;DHT22;54756;51.140;6.952;2024-01-06T12:42:46;6.20;99.90
67974;DHT22;54756;51.140;6.952;2024-01-06T12:44:47;6.10;99.90
67974;DHT22;54756;51.140;6.952;2024-01-06T12:46:48;6.20;99.90
67974;DHT22;54756;51.140;6.952;2024-01-06T12:48:49;6.20;99.90
67974;DHT22;54756;51.140;6.952;2024-01-06T12:50:49;6.20;99.90
67974;DHT22;54756;51.140;6.952;2024-01-06T12:52:50;6.10;99.90
67974;DHT22;54756;51.140;6.952;2024-01-06T12:54:50;6.10;99.90
67974;DHT22;54756;51.140;6.952;2024-01-06T12:56:51;6.10;99.90
67974;DHT22;54756;51.140;6.952;2024-01-06T12:58:51;6.10;99.90
67974;DHT22;54756;51.140;6.952;2024-01-06T13:00:53;6.10;99.90